Time;durP1;ratioP1;P1;durP2;ratioP2;P2;SDS_P1;SDS_P2;PMS_P1;PMS_P2;Temp;Humidity;BMP_temperature;BMP_pressure;BME280_temperature;BME280_humidity;BME280_pressure;Samples;Min_cycle;Max_cycle;Signal;HPM_P1;HPM_P2
2022/09/20 00:00:37;;;;;;;;;;;;;;;11.51;76.27;99503.47;4410882;32;33109;-90
2022/09/20 00:03:06;;;;;;;;;;;;;;;11.53;76.14;99512.09;4411554;32;32838;-91
2022/09/20 00:05:35;;;;;;;;;;;;;;;11.39;76.42;99504.56;4427745;32;34060;-89
2022/09/20 00:08:05;;;;;;;;;;;;;;;11.65;75.79;99511.00;4429847;32;33519;-91
2022/09/20 00:10:38;;;;;;;;;;;;;;;11.57;75.94;99507.69;4430923;32;33760;-88
2022/09/20 00:13:08;;;;;;;;;;;;;;;11.41;76.67;99507.16;4416967;32;32417;-89
2022/09/20 00:15:40;;;;;;;;;;;;;;;11.64;75.37;99509.28;4430128;32;34392;-89
2022/09/20 00:18:08;;;;;;;;;;;;;;;11.65;75.36;99505.81;4425852;32;34027;-89
2022/09/20 00:20:41;;;;;;;;;;;;;;;11.50;75.86;99509.53;4421522;32;33611;-88
2022/09/20 00:23:09;;;;;;;;;;;;;;;11.70;75.08;99510.00;4424927;32;33558;-91
2022/09/20 00:25:38;;;;;;;;;;;;;;;11.46;75.86;99503.56;4430345;32;34143;-89
2022/09/20 00:28:12;;;;;;;;;;;;;;;11.48;76.13;99507.00;4424802;32;33899;-89
2022/09/20 00:30:42;;;;;;;;;;;;;;;11.39;75.95;99499.38;4434482;32;34344;-86
2022/09/20 00:33:10;;;;;;;;;;;;;;;11.49;75.40;99507.84;4432900;32;34282;-87
2022/09/20 00:35:37;;;;;;;;;;;;;;;11.41;75.55;99495.00;4429568;32;34093;-88
2022/09/20 00:38:14;;;;;;;;;;;;;;;11.40;75.87;99505.41;4424718;32;33682;-87
2022/09/20 00:40:46;;;;;;;;;;;;;;;11.42;75.41;99509.69;4430505;32;33688;-87
2022/09/20 00:43:16;;;;;;;;;;;;;;;11.43;75.38;99500.16;4433052;32;35076;-86
2022/09/20 00:45:45;;;;;;;;;;;;;;;11.69;74.34;99507.44;4425785;32;34038;-85
2022/09/20 00:48:18;;;;;;;;;;;;;;;11.82;73.58;99506.31;4414578;32;32689;-87
2022/09/20 00:50:52;;;;;;;;;;;;;;;11.78;73.27;99502.06;4424598;32;34179;-87
2022/09/20 00:53:23;;;;;;;;;;;;;;;11.72;73.53;99502.19;4426340;32;33094;-86
2022/09/20 00:55:52;;;;;;;;;;;;;;;11.67;74.00;99501.41;4428521;32;34903;-87
2022/09/20 00:58:21;;;;;;;;;;;;;;;11.29;75.16;99513.44;4424395;32;31202;-87
2022/09/20 01:00:52;;;;;;;;;;;;;;;11.50;74.73;99515.63;4423410;32;33048;-87
2022/09/20 01:03:21;;;;;;;;;;;;;;;11.70;73.89;99516.97;4425520;32;33488;-88
2022/09/20 01:05:54;;;;;;;;;;;;;;;11.82;73.25;99521.06;4427777;32;33457;-86
2022/09/20 01:08:23;;;;;;;;;;;;;;;11.63;73.71;99513.63;4422722;32;33008;-85
2022/09/20 01:10:52;;;;;;;;;;;;;;;11.61;73.85;99519.75;4421738;32;34534;-85
2022/09/20 01:13:23;;;;;;;;;;;;;;;11.71;73.04;99523.84;4424327;32;33581;-86
2022/09/20 01:15:57;;;;;;;;;;;;;;;11.66;73.34;99523.09;4428275;32;34079;-87
2022/09/20 01:18:26;;;;;;;;;;;;;;;11.70;73.22;99528.19;4428547;32;33187;-88
2022/09/20 01:20:54;;;;;;;;;;;;;;;11.87;72.19;99525.28;4425030;32;34780;-86
2022/09/20 01:23:28;;;;;;;;;;;;;;;11.88;72.16;99521.78;4428187;32;33261;-88
2022/09/20 01:26:06;;;;;;;;;;;;;;;11.90;71.84;99521.75;4429097;32;34625;-87
2022/09/20 01:28:42;;;;;;;;;;;;;;;11.93;71.79;99524.28;4430861;32;34166;-86
2022/09/20 01:31:11;;;;;;;;;;;;;;;11.73;72.35;99524.69;4430148;32;34602;-86
2022/09/20 01:33:41;;;;;;;;;;;;;;;11.63;72.66;99529.22;4427861;32;33758;-87
2022/09/20 01:36:10;;;;;;;;;;;;;;;11.53;73.17;99530.28;4422569;32;35791;-85
2022/09/20 01:38:44;;;;;;;;;;;;;;;11.61;72.52;99530.97;4428838;32;32841;-87
2022/09/20 01:41:14;;;;;;;;;;;;;;;11.58;72.73;99538.00;4435343;32;33822;-85
2022/09/20 01:43:48;;;;;;;;;;;;;;;11.85;71.64;99539.16;4422555;32;33534;-88
2022/09/20 01:46:20;;;;;;;;;;;;;;;11.60;73.11;99539.69;4426444;32;34266;-85
2022/09/20 01:49:01;;;;;;;;;;;;;;;11.78;71.67;99537.59;4425072;32;33833;-88
2022/09/20 01:51:59;;;;;;;;;;;;;;;11.65;72.29;99540.44;4424659;32;33433;-88
2022/09/20 01:54:43;;;;;;;;;;;;;;;11.89;71.62;99541.72;4431319;32;33892;-86
2022/09/20 01:57:17;;;;;;;;;;;;;;;12.06;71.18;99554.34;4415196;32;35475;-85
2022/09/20 01:59:58;;;;;;;;;;;;;;;11.80;72.58;99554.84;4428374;32;33340;-86
2022/09/20 02:02:39;;;;;;;;;;;;;;;11.97;72.34;99554.53;4424583;32;33713;-86
2022/09/20 02:05:19;;;;;;;;;;;;;;;12.03;71.91;99545.75;4424427;32;34366;-88
2022/09/20 02:08:10;;;;;;;;;;;;;;;12.22;71.80;99543.59;4409711;32;34969;-88
2022/09/20 02:10:45;;;;;;;;;;;;;;;12.38;71.03;99555.38;4424201;32;33587;-87
2022/09/20 02:13:19;;;;;;;;;;;;;;;12.46;69.62;99557.81;4427673;32;34151;-86
2022/09/20 02:16:17;;;;;;;;;;;;;;;12.55;68.73;99555.00;4424655;32;34989;-86
2022/09/20 02:18:52;;;;;;;;;;;;;;;12.54;68.90;99553.25;4366059;32;34961;-88
2022/09/20 02:21:27;;;;;;;;;;;;;;;12.28;70.04;99559.94;4364763;32;33018;-87
2022/09/20 02:23:59;;;;;;;;;;;;;;;12.10;71.14;99550.78;4370401;32;33065;-86
2022/09/20 02:26:31;;;;;;;;;;;;;;;12.41;69.25;99559.66;4358322;32;32495;-89
2022/09/20 02:29:09;;;;;;;;;;;;;;;12.32;69.42;99559.00;4359434;32;34365;-86
2022/09/20 02:31:53;;;;;;;;;;;;;;;12.32;70.00;99556.38;4359375;32;32891;-85
2022/09/20 02:34:39;;;;;;;;;;;;;;;12.59;68.27;99557.50;4359198;32;33462;-86
2022/09/20 02:37:29;;;;;;;;;;;;;;;12.41;69.15;99562.25;4344248;32;33726;-87
2022/09/20 02:40:00;;;;;;;;;;;;;;;12.35;68.90;99564.13;4354387;32;34310;-90
2022/09/20 02:42:33;;;;;;;;;;;;;;;12.14;69.62;99556.78;4349573;32;33425;-86
2022/09/20 02:45:04;;;;;;;;;;;;;;;12.30;69.41;99554.72;4342518;32;33194;-86
2022/09/20 02:47:46;;;;;;;;;;;;;;;12.24;69.52;99560.88;4350769;32;33836;-87
2022/09/20 02:50:22;;;;;;;;;;;;;;;12.02;69.97;99560.50;4350928;32;34546;-86
2022/09/20 02:52:58;;;;;;;;;;;;;;;12.20;69.73;99563.59;4350765;32;33258;-87
2022/09/20 02:55:28;;;;;;;;;;;;;;;12.28;69.34;99567.75;4373844;32;33047;-88
2022/09/20 02:58:00;;;;;;;;;;;;;;;12.37;68.87;99574.47;4380034;32;34144;-88
2022/09/20 03:00:29;;;;;;;;;;;;;;;12.47;68.37;99575.16;4374844;32;33629;-89
2022/09/20 03:03:00;;;;;;;;;;;;;;;12.42;68.33;99574.37;4388139;32;33042;-89
2022/09/20 03:05:30;;;;;;;;;;;;;;;12.37;68.12;99575.34;4378724;32;32858;-86
2022/09/20 03:08:04;;;;;;;;;;;;;;;12.38;67.80;99578.78;4385267;32;34831;-87
2022/09/20 03:10:34;;;;;;;;;;;;;;;11.94;69.52;99581.47;4374943;32;34168;-86
2022/09/20 03:13:12;;;;;;;;;;;;;;;12.17;68.67;99585.31;4381725;32;32720;-87
2022/09/20 03:15:46;;;;;;;;;;;;;;;11.95;69.49;99577.13;4406647;32;33430;-87
2022/09/20 03:18:16;;;;;;;;;;;;;;;11.64;71.13;99577.69;4407670;32;33022;-86
2022/09/20 03:20:48;;;;;;;;;;;;;;;11.72;71.14;99574.97;4418155;32;34342;-85
2022/09/20 03:23:23;;;;;;;;;;;;;;;11.58;71.29;99579.56;4407628;32;32814;-85
2022/09/20 03:25:55;;;;;;;;;;;;;;;11.44;72.23;99580.66;4403983;32;34742;-88
2022/09/20 03:28:29;;;;;;;;;;;;;;;11.38;72.64;99572.13;4408202;32;34045;-88
2022/09/20 03:31:00;;;;;;;;;;;;;;;11.25;73.25;99567.16;4408103;32;33332;-86
2022/09/20 03:33:32;;;;;;;;;;;;;;;11.50;71.67;99572.78;4414160;32;33534;-87
2022/09/20 03:36:04;;;;;;;;;;;;;;;11.25;72.96;99571.50;4410046;32;33764;-87
2022/09/20 03:38:51;;;;;;;;;;;;;;;11.14;73.31;99573.41;4412367;32;35224;-86
2022/09/20 03:41:28;;;;;;;;;;;;;;;11.19;73.36;99569.03;4414229;32;35052;-87
2022/09/20 03:44:09;;;;;;;;;;;;;;;10.86;74.36;99566.97;4411941;32;33896;-88
2022/09/20 03:46:40;;;;;;;;;;;;;;;10.98;73.85;99571.09;4413634;32;34187;-87
2022/09/20 03:49:24;;;;;;;;;;;;;;;11.12;73.42;99570.88;4414320;32;33508;-86
2022/09/20 03:51:54;;;;;;;;;;;;;;;10.85;74.28;99560.06;4409010;32;33532;-86
2022/09/20 03:54:46;;;;;;;;;;;;;;;10.64;75.57;99561.25;4407532;32;33986;-87
2022/09/20 03:57:21;;;;;;;;;;;;;;;10.52;76.63;99566.63;4415778;32;34143;-86
2022/09/20 03:59:57;;;;;;;;;;;;;;;10.57;76.59;99561.38;4415086;32;33750;-88
2022/09/20 04:02:43;;;;;;;;;;;;;;;10.67;75.50;99562.94;4410822;32;34510;-85
2022/09/20 04:05:23;;;;;;;;;;;;;;;10.82;74.89;99557.50;4403154;32;33137;-85
2022/09/20 04:07:54;;;;;;;;;;;;;;;10.85;74.85;99556.63;4396012;32;34362;-88
2022/09/20 04:10:35;;;;;;;;;;;;;;;10.60;75.74;99558.72;4393386;32;33697;-89
2022/09/20 04:13:09;;;;;;;;;;;;;;;10.66;74.99;99561.25;4392855;32;33589;-87
2022/09/20 04:15:43;;;;;;;;;;;;;;;10.50;76.07;99560.59;4403239;32;33669;-88
2022/09/20 04:18:12;;;;;;;;;;;;;;;10.33;76.63;99571.22;4404777;32;35232;-89
2022/09/20 04:20:50;;;;;;;;;;;;;;;10.33;76.83;99572.97;4397155;32;34202;-89
2022/09/20 04:23:24;;;;;;;;;;;;;;;10.55;75.84;99570.91;4402640;32;33771;-87
2022/09/20 04:25:53;;;;;;;;;;;;;;;10.39;76.44;99573.75;4389033;32;32395;-85
2022/09/20 04:28:24;;;;;;;;;;;;;;;10.38;75.89;99571.16;4402115;32;33976;-87
2022/09/20 04:30:56;;;;;;;;;;;;;;;10.39;75.87;99575.47;4399970;32;33826;-86
2022/09/20 04:33:29;;;;;;;;;;;;;;;10.53;74.84;99567.47;4390701;32;34176;-86
2022/09/20 04:38:51;;;;;;;;;;;;;;;10.20;76.03;99580.03;4397824;32;33601;-87
2022/09/20 04:41:35;;;;;;;;;;;;;;;10.22;76.32;99584.31;4406722;32;33891;-86
2022/09/20 04:44:20;;;;;;;;;;;;;;;10.18;76.41;99585.22;4411877;32;33969;-87
2022/09/20 04:46:57;;;;;;;;;;;;;;;10.22;76.07;99589.50;4387761;32;33260;-87
2022/09/20 04:49:34;;;;;;;;;;;;;;;10.23;75.84;99580.84;4410674;32;34199;-85
2022/09/20 04:52:24;;;;;;;;;;;;;;;10.12;76.26;99587.03;4407399;32;33538;-87
2022/09/20 04:55:11;;;;;;;;;;;;;;;10.06;77.03;99594.91;4412358;32;33515;-85
2022/09/20 04:57:55;;;;;;;;;;;;;;;10.24;75.87;99603.31;4422492;32;33066;-85
2022/09/20 05:00:25;;;;;;;;;;;;;;;10.30;75.65;99588.56;4402607;32;32990;-87
2022/09/20 05:03:12;;;;;;;;;;;;;;;10.42;75.18;99591.00;4424858;32;34768;-85
2022/09/20 05:05:58;;;;;;;;;;;;;;;10.36;75.85;99596.25;4428851;32;34703;-86
2022/09/20 05:08:58;;;;;;;;;;;;;;;10.61;74.59;99592.44;4412447;32;34069;-88
2022/09/20 05:11:45;;;;;;;;;;;;;;;10.76;74.08;99591.34;4427900;32;34072;-86
2022/09/20 05:14:25;;;;;;;;;;;;;;;10.67;74.97;99596.66;4427991;32;34750;-85
2022/09/20 05:17:01;;;;;;;;;;;;;;;10.75;74.94;99593.94;4426099;32;34875;-88
2022/09/20 05:19:31;;;;;;;;;;;;;;;10.97;73.53;99599.66;4437774;32;33057;-88
2022/09/20 05:22:17;;;;;;;;;;;;;;;10.96;73.93;99598.81;4430245;32;34302;-87
2022/09/20 05:25:11;;;;;;;;;;;;;;;10.86;73.98;99607.63;4433252;32;34622;-86
2022/09/20 05:27:41;;;;;;;;;;;;;;;11.07;73.63;99609.88;4379719;32;35105;-85
2022/09/20 05:30:16;;;;;;;;;;;;;;;10.86;74.34;99615.41;4355744;32;32490;-85
2022/09/20 05:32:45;;;;;;;;;;;;;;;10.98;74.02;99611.78;4371584;32;33578;-85
2022/09/20 05:35:15;;;;;;;;;;;;;;;10.87;74.17;99607.63;4368817;32;33771;-85
2022/09/20 05:37:44;;;;;;;;;;;;;;;10.72;75.42;99619.97;4368751;32;34661;-87
2022/09/20 05:40:16;;;;;;;;;;;;;;;10.78;75.16;99617.28;4368504;32;33664;-85
2022/09/20 05:42:47;;;;;;;;;;;;;;;10.87;74.60;99614.53;4375810;32;33748;-85
2022/09/20 05:45:36;;;;;;;;;;;;;;;10.58;75.78;99623.62;4368092;32;34677;-87
2022/09/20 05:48:10;;;;;;;;;;;;;;;10.78;75.69;99622.47;4364840;32;33986;-86
2022/09/20 05:50:44;;;;;;;;;;;;;;;10.76;76.09;99621.63;4355663;32;31861;-86
2022/09/20 05:53:23;;;;;;;;;;;;;;;10.84;75.64;99624.97;4372905;32;33132;-86
2022/09/20 05:55:54;;;;;;;;;;;;;;;10.76;75.88;99624.22;4368665;32;33708;-89
2022/09/20 05:58:28;;;;;;;;;;;;;;;10.80;75.93;99618.97;4372844;32;34898;-88
2022/09/20 06:00:57;;;;;;;;;;;;;;;11.22;74.52;99616.56;4365112;32;34065;-85
2022/09/20 06:03:30;;;;;;;;;;;;;;;11.13;74.68;99616.69;4368733;32;35100;-87
2022/09/20 06:06:10;;;;;;;;;;;;;;;11.18;74.63;99635.66;4426015;32;34160;-85
2022/09/20 06:08:57;;;;;;;;;;;;;;;11.30;74.69;99632.00;4430133;32;34282;-87
2022/09/20 06:11:44;;;;;;;;;;;;;;;11.42;74.43;99634.38;4427279;32;33273;-86
2022/09/20 06:14:17;;;;;;;;;;;;;;;11.58;73.31;99634.97;4436807;32;33866;-87
2022/09/20 06:16:47;;;;;;;;;;;;;;;11.70;73.30;99636.50;4431284;32;34343;-87
2022/09/20 06:19:25;;;;;;;;;;;;;;;11.66;72.55;99638.28;4431543;32;33814;-88
2022/09/20 06:22:00;;;;;;;;;;;;;;;11.74;73.18;99641.63;4433213;32;33933;-85
2022/09/20 06:24:33;;;;;;;;;;;;;;;11.74;74.00;99644.22;4432953;32;33875;-86
2022/09/20 06:27:02;;;;;;;;;;;;;;;12.08;73.09;99645.31;4437235;32;33325;-85
2022/09/20 06:29:33;;;;;;;;;;;;;;;12.14;71.09;99643.44;4430934;32;34655;-86
2022/09/20 06:32:01;;;;;;;;;;;;;;;11.97;73.05;99648.13;4433010;32;32718;-88
2022/09/20 06:34:30;;;;;;;;;;;;;;;12.15;72.06;99645.19;4432454;32;33743;-86
2022/09/20 06:42:52;;;;;;;;;;;;;;;12.81;71.13;99646.34;4416499;32;34090;-89
2022/09/20 06:45:22;;;;;;;;;;;;;;;12.93;70.95;99636.53;4425520;32;33884;-90
2022/09/20 06:47:51;;;;;;;;;;;;;;;13.14;68.99;99640.34;4426964;32;34078;-86
2022/09/20 06:50:22;;;;;;;;;;;;;;;12.92;69.05;99637.41;4430461;32;34373;-85
2022/09/20 06:52:56;;;;;;;;;;;;;;;13.00;69.17;99643.31;4421356;32;33343;-86
2022/09/20 06:55:29;;;;;;;;;;;;;;;12.85;69.44;99635.84;4424278;32;33436;-85
2022/09/20 06:58:05;;;;;;;;;;;;;;;12.77;69.32;99641.25;4429422;32;33945;-86
2022/09/20 07:00:39;;;;;;;;;;;;;;;12.67;70.55;99640.59;4431010;32;33850;-88
2022/09/20 07:03:08;;;;;;;;;;;;;;;12.75;69.94;99645.63;4431675;32;33414;-90
2022/09/20 07:05:37;;;;;;;;;;;;;;;12.79;68.34;99655.94;4437028;32;33831;-88
2022/09/20 07:08:06;;;;;;;;;;;;;;;12.58;69.46;99648.59;4431449;32;34920;-88
2022/09/20 07:10:40;;;;;;;;;;;;;;;12.70;68.33;99645.72;4431001;32;34938;-86
2022/09/20 07:13:10;;;;;;;;;;;;;;;12.69;67.90;99650.97;4436152;32;32563;-89
2022/09/20 07:15:42;;;;;;;;;;;;;;;12.66;69.08;99649.31;4436436;32;33069;-88
2022/09/20 07:18:10;;;;;;;;;;;;;;;12.92;68.33;99664.31;4432455;32;35096;-88
2022/09/20 07:20:40;;;;;;;;;;;;;;;12.72;68.08;99654.34;4431209;32;34176;-92
2022/09/20 07:23:11;;;;;;;;;;;;;;;12.69;68.47;99664.84;4434834;32;33248;-87
2022/09/20 07:25:44;;;;;;;;;;;;;;;12.61;68.98;99669.34;4431189;32;34776;-88
2022/09/20 07:28:12;;;;;;;;;;;;;;;12.62;68.73;99668.47;4436964;32;33856;-90
2022/09/20 07:30:46;;;;;;;;;;;;;;;12.85;68.36;99669.69;4430101;32;34952;-88
2022/09/20 07:33:20;;;;;;;;;;;;;;;12.58;70.26;99680.69;4432933;32;34209;-91
2022/09/20 07:35:56;;;;;;;;;;;;;;;12.88;68.88;99682.63;4431687;32;34688;-87
2022/09/20 07:38:29;;;;;;;;;;;;;;;12.93;66.60;99680.81;4430928;32;34452;-87
2022/09/20 07:40:59;;;;;;;;;;;;;;;12.67;67.36;99687.44;4436641;32;34910;-86
2022/09/20 07:43:31;;;;;;;;;;;;;;;12.82;67.03;99691.44;4431397;32;34171;-87
2022/09/20 07:46:00;;;;;;;;;;;;;;;12.71;67.04;99681.28;4430835;32;34800;-86
2022/09/20 07:48:35;;;;;;;;;;;;;;;12.52;68.34;99693.00;4430578;32;33586;-86
2022/09/20 07:51:05;;;;;;;;;;;;;;;12.82;67.68;99681.03;4435983;32;34261;-86
2022/09/20 07:53:41;;;;;;;;;;;;;;;12.83;67.77;99682.78;4436402;32;33547;-87
2022/09/20 07:56:11;;;;;;;;;;;;;;;12.83;67.33;99682.78;4430050;32;33378;-91
2022/09/20 07:58:43;;;;;;;;;;;;;;;13.09;67.00;99687.34;4430639;32;33341;-85
2022/09/20 08:01:23;;;;;;;;;;;;;;;13.12;66.33;99687.31;4431998;32;35053;-88
2022/09/20 08:03:52;;;;;;;;;;;;;;;13.23;66.65;99687.87;4436174;32;32981;-85
2022/09/20 08:06:23;;;;;;;;;;;;;;;13.45;66.11;99682.19;4433259;32;34011;-91
2022/09/20 08:08:51;;;;;;;;;;;;;;;13.57;65.62;99687.06;4430745;32;34437;-90
2022/09/20 08:11:24;;;;;;;;;;;;;;;13.84;65.39;99698.56;4431263;32;34198;-90
2022/09/20 08:13:58;;;;;;;;;;;;;;;13.66;64.92;99699.88;4431229;32;33520;-88
2022/09/20 08:16:43;;;;;;;;;;;;;;;13.58;64.49;99688.81;4431610;32;33777;-88
2022/09/20 08:19:17;;;;;;;;;;;;;;;13.58;63.76;99690.53;4427217;32;34760;-87
2022/09/20 08:21:47;;;;;;;;;;;;;;;13.79;65.12;99691.75;4430345;32;34134;-87
2022/09/20 08:24:16;;;;;;;;;;;;;;;14.10;62.68;99702.22;4431176;32;33158;-87
2022/09/20 08:26:45;;;;;;;;;;;;;;;13.98;62.85;99692.97;4430070;32;33563;-86
2022/09/20 08:29:14;;;;;;;;;;;;;;;14.10;63.25;99694.38;4435749;32;34335;-86
2022/09/20 08:31:44;;;;;;;;;;;;;;;14.05;62.25;99689.28;4430843;32;33767;-86
2022/09/20 08:34:17;;;;;;;;;;;;;;;14.24;62.37;99688.78;4431604;32;33319;-87
2022/09/20 08:36:50;;;;;;;;;;;;;;;14.20;62.04;99687.16;4417921;32;32525;-89
2022/09/20 08:39:19;;;;;;;;;;;;;;;14.50;61.81;99691.50;4438223;32;33883;-88
2022/09/20 08:42:15;;;;;;;;;;;;;;;14.40;61.08;99684.84;4437610;32;34717;-89
2022/09/20 08:44:46;;;;;;;;;;;;;;;14.39;60.97;99688.34;4436758;32;35150;-86
2022/09/20 08:47:17;;;;;;;;;;;;;;;14.56;61.14;99694.88;4428567;32;33438;-87
2022/09/20 08:49:46;;;;;;;;;;;;;;;14.69;60.33;99702.28;4420544;32;32791;-87
2022/09/20 08:52:19;;;;;;;;;;;;;;;14.88;59.87;99701.72;4421169;32;34473;-87
2022/09/20 08:54:47;;;;;;;;;;;;;;;15.30;59.33;99699.53;4438011;32;33628;-86
2022/09/20 08:57:16;;;;;;;;;;;;;;;15.21;59.04;99698.97;4432276;32;33674;-87
2022/09/20 08:59:49;;;;;;;;;;;;;;;14.70;59.69;99693.53;4432550;32;34466;-85
2022/09/20 09:02:19;;;;;;;;;;;;;;;14.61;59.12;99700.81;4433106;32;34394;-88
2022/09/20 09:04:50;;;;;;;;;;;;;;;14.71;59.81;99697.88;4437595;32;33083;-88
2022/09/20 09:07:21;;;;;;;;;;;;;;;14.67;60.36;99692.81;4430979;32;34463;-87
2022/09/20 09:09:54;;;;;;;;;;;;;;;14.98;58.76;99697.94;4431434;32;33449;-88
2022/09/20 09:12:24;;;;;;;;;;;;;;;14.71;59.65;99689.19;4430842;32;34842;-87
2022/09/20 09:14:54;;;;;;;;;;;;;;;14.56;60.01;99685.28;4430372;32;33718;-90
2022/09/20 09:17:24;;;;;;;;;;;;;;;15.13;58.71;99691.38;4437532;32;32782;-87
2022/09/20 09:19:56;;;;;;;;;;;;;;;15.28;58.67;99683.03;4429083;32;33829;-89
2022/09/20 09:22:35;;;;;;;;;;;;;;;15.17;59.28;99682.50;4432934;32;33839;-86
2022/09/20 09:25:09;;;;;;;;;;;;;;;14.88;57.56;99676.47;4434702;32;33892;-87
2022/09/20 09:27:50;;;;;;;;;;;;;;;15.01;58.09;99682.16;4430867;32;33922;-88
2022/09/20 09:30:19;;;;;;;;;;;;;;;15.25;58.32;99677.91;4434802;32;33932;-86
2022/09/20 09:32:48;;;;;;;;;;;;;;;15.29;57.13;99679.50;4429743;32;35379;-86
2022/09/20 09:35:25;;;;;;;;;;;;;;;15.28;56.94;99684.81;4434793;32;33701;-86
2022/09/20 09:37:55;;;;;;;;;;;;;;;15.22;57.92;99687.59;4431979;32;34741;-85
2022/09/20 09:40:24;;;;;;;;;;;;;;;15.09;56.92;99684.53;4437585;32;34453;-89
2022/09/20 09:42:53;;;;;;;;;;;;;;;15.05;57.85;99682.91;4419940;32;34986;-86
2022/09/20 09:45:26;;;;;;;;;;;;;;;14.89;58.64;99686.00;4427516;32;34226;-85
2022/09/20 09:47:58;;;;;;;;;;;;;;;14.57;58.88;99688.72;4432192;32;33658;-85
2022/09/20 09:50:29;;;;;;;;;;;;;;;14.51;58.88;99687.13;4432285;32;34308;-88
2022/09/20 09:53:03;;;;;;;;;;;;;;;14.82;58.58;99681.03;4437606;32;34668;-86
2022/09/20 09:55:38;;;;;;;;;;;;;;;15.00;58.24;99671.75;4432558;32;33137;-88
2022/09/20 09:58:11;;;;;;;;;;;;;;;15.06;58.78;99668.97;4432080;32;34856;-85
2022/09/20 10:00:45;;;;;;;;;;;;;;;14.91;57.16;99681.59;4431785;32;33494;-88
2022/09/20 10:03:28;;;;;;;;;;;;;;;14.96;56.45;99675.38;4432855;32;34477;-87
2022/09/20 10:06:03;;;;;;;;;;;;;;;15.00;56.63;99670.00;4436923;32;33027;-90
2022/09/20 10:08:38;;;;;;;;;;;;;;;15.09;56.08;99671.47;4430809;32;34130;-90
2022/09/20 10:11:10;;;;;;;;;;;;;;;15.21;56.16;99673.69;4429025;32;33439;-85
2022/09/20 10:13:41;;;;;;;;;;;;;;;15.08;56.81;99672.38;4436475;32;34596;-85
2022/09/20 10:16:12;;;;;;;;;;;;;;;15.11;56.15;99678.34;4429525;32;32789;-87
2022/09/20 10:18:42;;;;;;;;;;;;;;;15.35;56.71;99671.47;4437343;32;34838;-86
2022/09/20 10:21:16;;;;;;;;;;;;;;;15.44;53.94;99679.91;4431759;32;35138;-87
2022/09/20 10:23:59;;;;;;;;;;;;;;;15.30;53.90;99673.37;4434199;32;33994;-87
2022/09/20 10:27:02;;;;;;;;;;;;;;;15.00;53.93;99680.44;4431389;32;33171;-84
2022/09/20 10:29:35;;;;;;;;;;;;;;;15.25;54.91;99675.31;4382956;32;34746;-85
2022/09/20 10:32:11;;;;;;;;;;;;;;;15.62;55.21;99673.22;4383645;32;33692;-85
2022/09/20 10:35:02;;;;;;;;;;;;;;;15.86;53.91;99661.09;4388827;32;34709;-86
2022/09/20 10:37:35;;;;;;;;;;;;;;;15.83;53.90;99671.66;4340554;33;34165;-85
2022/09/20 10:40:13;;;;;;;;;;;;;;;16.21;53.90;99668.53;4338638;33;34725;-87
2022/09/20 10:45:29;;;;;;;;;;;;;;;16.55;50.75;99669.00;4338406;33;34823;-89
2022/09/20 10:48:22;;;;;;;;;;;;;;;16.56;50.89;99652.41;4338187;33;34253;-84
2022/09/20 10:50:53;;;;;;;;;;;;;;;16.63;50.82;99654.72;4343812;33;33752;-85
2022/09/20 10:53:27;;;;;;;;;;;;;;;16.52;51.46;99656.88;4339481;33;34014;-85
2022/09/20 10:55:59;;;;;;;;;;;;;;;16.91;50.90;99655.44;4340546;33;34831;-86
2022/09/20 10:58:55;;;;;;;;;;;;;;;17.11;50.90;99659.91;4338202;33;33795;-85
2022/09/20 11:01:30;;;;;;;;;;;;;;;16.65;52.73;99673.00;4339819;33;34048;-84
2022/09/20 11:04:02;;;;;;;;;;;;;;;16.31;55.44;99669.03;4368596;32;34211;-84
2022/09/20 11:06:37;;;;;;;;;;;;;;;16.32;56.10;99673.34;4387463;32;34010;-84
2022/09/20 11:09:05;;;;;;;;;;;;;;;16.05;56.74;99674.38;4383176;32;33058;-85
2022/09/20 11:11:50;;;;;;;;;;;;;;;16.17;57.03;99687.84;4377717;32;34344;-81
2022/09/20 11:14:20;;;;;;;;;;;;;;;15.55;60.88;99678.66;4398235;32;34880;-82
2022/09/20 11:16:49;;;;;;;;;;;;;;;15.06;65.71;99680.25;4436213;32;33790;-85
2022/09/20 11:19:19;;;;;;;;;;;;;;;14.89;66.69;99686.00;4431256;32;33505;-84
2022/09/20 11:21:56;;;;;;;;;;;;;;;14.89;66.88;99672.94;4430859;32;34703;-83
2022/09/20 11:24:27;;;;;;;;;;;;;;;14.77;67.78;99682.94;4431302;32;34145;-85
2022/09/20 11:27:02;;;;;;;;;;;;;;;15.12;67.77;99672.22;4430741;32;34102;-85
2022/09/20 11:29:33;;;;;;;;;;;;;;;15.33;66.29;99672.44;4436726;32;33230;-85
2022/09/20 11:32:02;;;;;;;;;;;;;;;15.61;65.43;99663.66;4429051;32;34757;-84
2022/09/20 11:34:36;;;;;;;;;;;;;;;15.58;65.99;99659.38;4416913;32;33945;-85
2022/09/20 11:37:04;;;;;;;;;;;;;;;15.76;64.07;99657.94;4427115;32;34064;-87
2022/09/20 11:39:35;;;;;;;;;;;;;;;15.91;64.90;99654.78;4430787;32;32857;-84
2022/09/20 11:42:05;;;;;;;;;;;;;;;15.85;66.32;99661.97;4436434;32;33781;-85
2022/09/20 11:44:40;;;;;;;;;;;;;;;15.99;64.03;99647.53;4435525;32;34369;-85
2022/09/20 11:47:11;;;;;;;;;;;;;;;16.01;61.30;99655.28;4429960;32;34314;-85
2022/09/20 11:49:47;;;;;;;;;;;;;;;15.71;63.04;99649.41;4430251;32;34615;-85
2022/09/20 11:52:34;;;;;;;;;;;;;;;15.34;64.54;99643.63;4432457;32;33977;-85
2022/09/20 11:55:07;;;;;;;;;;;;;;;15.15;64.47;99642.53;4424820;32;33317;-83
2022/09/20 11:57:37;;;;;;;;;;;;;;;15.14;62.18;99641.66;4429844;32;33920;-87
2022/09/20 12:00:08;;;;;;;;;;;;;;;15.04;62.42;99637.66;4431066;32;33644;-85
2022/09/20 12:02:41;;;;;;;;;;;;;;;15.39;62.05;99629.53;4428575;32;34175;-85
2022/09/20 12:05:34;;;;;;;;;;;;;;;15.26;63.00;99632.56;4430317;32;34269;-84
2022/09/20 12:08:03;;;;;;;;;;;;;;;15.42;61.28;99638.16;4434746;32;34312;-86
2022/09/20 12:10:33;;;;;;;;;;;;;;;15.40;63.06;99633.88;4431570;32;33507;-84
2022/09/20 12:13:04;;;;;;;;;;;;;;;15.90;61.51;99631.28;4432449;32;35254;-85
2022/09/20 12:15:34;;;;;;;;;;;;;;;15.96;60.65;99628.44;4432060;32;34727;-84
2022/09/20 12:18:30;;;;;;;;;;;;;;;16.18;59.92;99629.34;4430235;32;33990;-87
2022/09/20 12:21:08;;;;;;;;;;;;;;;15.85;59.48;99615.78;4372962;32;32843;-85
2022/09/20 12:24:09;;;;;;;;;;;;;;;15.94;57.90;99622.41;4373975;32;34350;-85
2022/09/20 12:26:42;;;;;;;;;;;;;;;16.03;56.00;99622.09;4370495;32;34460;-86
2022/09/20 12:29:30;;;;;;;;;;;;;;;16.12;55.70;99616.50;4369003;32;33517;-89
2022/09/20 12:32:01;;;;;;;;;;;;;;;16.30;58.10;99619.34;4369189;32;32971;-88
2022/09/20 12:34:34;;;;;;;;;;;;;;;16.07;57.37;99613.22;4372236;32;34953;-86
2022/09/20 12:37:17;;;;;;;;;;;;;;;16.42;56.23;99624.97;4372117;32;34085;-89
2022/09/20 12:39:52;;;;;;;;;;;;;;;16.46;56.12;99615.25;4375737;32;34097;-86
2022/09/20 12:42:26;;;;;;;;;;;;;;;16.95;54.86;99625.56;4367988;32;32753;-86
2022/09/20 12:44:58;;;;;;;;;;;;;;;17.10;55.22;99617.06;4370377;32;33571;-87
2022/09/20 12:47:28;;;;;;;;;;;;;;;17.36;54.26;99613.37;4368374;32;34849;-86
2022/09/20 12:52:52;;;;;;;;;;;;;;;16.94;52.39;99618.66;4359381;32;33575;-85
2022/09/20 12:55:31;;;;;;;;;;;;;;;16.48;53.18;99623.91;4357831;32;35550;-88
2022/09/20 12:58:08;;;;;;;;;;;;;;;16.19;55.45;99623.22;4367266;32;33698;-87
2022/09/20 13:00:39;;;;;;;;;;;;;;;15.85;56.30;99627.97;4363583;32;33432;-86
2022/09/20 13:03:27;;;;;;;;;;;;;;;15.78;57.27;99627.34;4372271;32;33226;-87
2022/09/20 13:06:25;;;;;;;;;;;;;;;15.89;56.08;99616.50;4374017;32;33604;-87
2022/09/20 13:09:03;;;;;;;;;;;;;;;15.98;54.33;99614.41;4351602;32;33781;-87
2022/09/20 13:11:34;;;;;;;;;;;;;;;16.34;54.67;99610.47;4352512;32;33691;-88
2022/09/20 13:14:06;;;;;;;;;;;;;;;16.31;52.70;99623.66;4354951;32;33831;-85
2022/09/20 13:16:39;;;;;;;;;;;;;;;15.86;53.52;99624.47;4350452;32;33947;-87
2022/09/20 13:19:19;;;;;;;;;;;;;;;16.08;53.12;99619.31;4355466;32;34147;-86
2022/09/20 13:21:50;;;;;;;;;;;;;;;15.97;54.14;99622.28;4346882;32;32354;-87
2022/09/20 13:24:19;;;;;;;;;;;;;;;15.85;53.44;99613.16;4355566;32;35257;-85
2022/09/20 13:26:48;;;;;;;;;;;;;;;15.84;54.49;99626.28;4352363;32;33662;-87
2022/09/20 13:29:20;;;;;;;;;;;;;;;16.02;55.14;99620.37;4352797;32;33970;-88
2022/09/20 13:31:49;;;;;;;;;;;;;;;15.97;55.05;99617.06;4370492;32;34355;-88
2022/09/20 13:34:24;;;;;;;;;;;;;;;15.91;55.93;99617.31;4354621;32;33218;-87
2022/09/20 13:36:56;;;;;;;;;;;;;;;15.82;57.25;99610.63;4355513;32;33486;-86
2022/09/20 13:39:28;;;;;;;;;;;;;;;15.88;55.71;99613.03;4364661;32;34778;-89